Time;durP1;ratioP1;P1;durP2;ratioP2;P2;SDS_P1;SDS_P2;PMS_P1;PMS_P2;Temp;Humidity;BMP_temperature;BMP_pressure;BME280_temperature;BME280_humidity;BME280_pressure;Samples;Min_cycle;Max_cycle;Signal;HPM_P1;HPM_P2
2023/05/11 00:00:43;;;;;;;26.27;12.60;;;11.80;93.90;;;;;;4980698;28;20128;-82
2023/05/11 00:03:09;;;;;;;17.38;11.70;;;11.80;93.90;;;;;;4996733;28;20045;-82
2023/05/11 00:05:35;;;;;;;14.65;11.35;;;11.80;93.90;;;;;;4980362;28;20474;-84
2023/05/11 00:08:00;;;;;;;21.58;12.55;;;11.80;93.90;;;;;;4964234;28;20041;-81
2023/05/11 00:10:28;;;;;;;19.40;13.18;;;11.80;94.00;;;;;;4996593;28;20041;-80
2023/05/11 00:12:54;;;;;;;16.60;11.57;;;11.80;93.90;;;;;;4996712;28;20096;-82
2023/05/11 00:15:20;;;;;;;17.15;12.07;;;11.80;94.00;;;;;;4979770;28;20045;-83
2023/05/11 00:17:45;;;;;;;21.73;12.00;;;11.80;93.90;;;;;;4996465;28;20731;-81
2023/05/11 00:20:11;;;;;;;19.77;12.68;;;11.80;94.10;;;;;;4981170;28;20052;-83
2023/05/11 00:22:37;;;;;;;18.38;12.48;;;11.90;94.10;;;;;;4996839;28;20512;-81
2023/05/11 00:25:04;;;;;;;17.83;11.90;;;11.90;94.00;;;;;;4964926;28;20101;-80
2023/05/11 00:27:30;;;;;;;15.68;12.05;;;11.80;94.10;;;;;;4980420;28;20137;-82
2023/05/11 00:29:55;;;;;;;18.48;12.90;;;11.80;94.10;;;;;;4980752;28;20481;-81
2023/05/11 00:32:21;;;;;;;21.55;13.32;;;11.90;94.10;;;;;;4964400;28;20038;-83
2023/05/11 00:34:47;;;;;;;23.95;12.30;;;11.80;94.00;;;;;;4996429;28;20041;-83
2023/05/11 00:37:12;;;;;;;15.10;9.57;;;11.80;94.00;;;;;;4996744;28;20052;-82
2023/05/11 00:39:39;;;;;;;31.63;12.55;;;11.80;94.00;;;;;;4996795;28;20041;-83
2023/05/11 00:42:05;;;;;;;18.05;11.27;;;11.80;94.10;;;;;;4996621;28;20075;-80
2023/05/11 00:44:31;;;;;;;17.23;11.27;;;11.90;94.10;;;;;;5012964;28;20120;-82
2023/05/11 00:46:57;;;;;;;15.60;11.25;;;11.90;94.00;;;;;;4997452;28;20073;-80
2023/05/11 00:49:23;;;;;;;17.58;11.00;;;11.80;94.00;;;;;;4980486;28;20544;-80
2023/05/11 00:51:49;;;;;;;17.05;12.38;;;11.80;94.00;;;;;;4996695;28;20042;-82
2023/05/11 00:54:15;;;;;;;16.20;11.38;;;11.80;94.10;;;;;;4997685;28;20045;-81
2023/05/11 00:56:41;;;;;;;16.20;12.02;;;11.80;94.10;;;;;;4996568;28;20041;-83
2023/05/11 00:59:07;;;;;;;17.20;12.73;;;11.80;94.20;;;;;;5012632;28;20037;-82
2023/05/11 01:01:34;;;;;;;15.32;12.15;;;11.80;94.10;;;;;;4995891;28;20524;-82
2023/05/11 01:04:01;;;;;;;15.50;11.75;;;11.80;94.10;;;;;;4980120;28;20077;-79
2023/05/11 01:06:41;;;;;;;16.90;12.15;;;11.80;94.10;;;;;;4996106;28;20046;-80
2023/05/11 01:09:58;;;;;;;18.65;13.07;;;11.80;94.10;;;;;;5012883;28;20125;-82
2023/05/11 01:12:43;;;;;;;34.13;12.32;;;11.80;94.10;;;;;;4956416;28;20047;-83
2023/05/11 01:15:24;;;;;;;18.17;12.63;;;11.80;94.20;;;;;;4957013;28;20043;-82
2023/05/11 01:17:54;;;;;;;17.30;12.80;;;11.80;94.20;;;;;;4994889;28;20054;-83
2023/05/11 01:20:26;;;;;;;35.45;12.55;;;11.70;94.30;;;;;;5012689;28;20046;-82
2023/05/11 01:23:19;;;;;;;16.75;12.10;;;11.70;94.30;;;;;;4996099;28;20097;-82
2023/05/11 01:26:03;;;;;;;23.73;12.02;;;11.70;94.40;;;;;;5013762;28;20045;-80
2023/05/11 01:28:47;;;;;;;18.20;13.00;;;11.70;94.30;;;;;;4999618;28;20042;-83
2023/05/11 01:31:16;;;;;;;20.38;12.13;;;11.70;94.30;;;;;;5016307;28;20072;-81
2023/05/11 01:34:06;;;;;;;18.02;12.27;;;11.70;94.30;;;;;;5016151;28;20042;-82
2023/05/11 01:36:35;;;;;;;21.42;12.35;;;11.70;94.40;;;;;;5015822;28;20046;-81
2023/05/11 01:39:06;;;;;;;21.92;12.27;;;11.70;94.30;;;;;;5000018;28;20471;-83
2023/05/11 01:41:34;;;;;;;19.33;12.02;;;11.70;94.30;;;;;;5015997;28;20557;-81
2023/05/11 01:44:04;;;;;;;24.88;14.15;;;11.70;94.20;;;;;;4999750;28;20038;-84
2023/05/11 01:46:32;;;;;;;18.80;12.07;;;11.70;94.20;;;;;;5015601;28;20041;-80
2023/05/11 01:49:00;;;;;;;20.58;12.70;;;11.70;94.30;;;;;;4998997;28;20048;-82
2023/05/11 01:51:33;;;;;;;16.92;12.52;;;11.70;94.30;;;;;;4998915;28;20042;-82
2023/05/11 01:54:00;;;;;;;24.35;14.13;;;11.70;94.30;;;;;;4999165;28;20041;-80
2023/05/11 01:56:26;;;;;;;21.48;13.60;;;11.70;94.30;;;;;;5015086;28;20042;-81
2023/05/11 01:58:54;;;;;;;19.08;13.30;;;11.70;94.50;;;;;;4982576;28;20490;-83
2023/05/11 02:01:21;;;;;;;17.20;12.68;;;11.70;94.60;;;;;;5015146;28;20045;-81
2023/05/11 02:03:48;;;;;;;19.80;12.55;;;11.70;94.50;;;;;;4982841;28;20072;-82
2023/05/11 02:06:16;;;;;;;17.77;12.20;;;11.70;94.50;;;;;;4999586;28;20041;-82
2023/05/11 02:08:44;;;;;;;19.73;12.60;;;11.70;94.50;;;;;;4998752;28;20042;-83
2023/05/11 02:11:10;;;;;;;20.40;12.93;;;11.70;94.50;;;;;;5015057;28;20134;-82
2023/05/11 02:13:40;;;;;;;23.40;13.35;;;11.70;94.50;;;;;;5015207;28;20092;-82
2023/05/11 02:16:07;;;;;;;21.50;13.95;;;11.70;94.50;;;;;;5015030;28;20528;-83
2023/05/11 02:18:34;;;;;;;17.48;11.85;;;11.70;94.50;;;;;;4998583;28;20510;-79
2023/05/11 02:21:01;;;;;;;15.65;12.23;;;11.70;94.50;;;;;;5015310;28;20050;-79
2023/05/11 02:23:29;;;;;;;19.20;13.18;;;11.70;94.40;;;;;;4982295;28;20046;-81
2023/05/11 02:25:56;;;;;;;18.13;12.88;;;11.70;94.50;;;;;;5014460;28;20544;-82
2023/05/11 02:28:22;;;;;;;20.02;12.88;;;11.70;94.40;;;;;;4982146;28;20503;-82
2023/05/11 02:30:51;;;;;;;20.70;12.77;;;11.70;94.50;;;;;;5014636;28;20121;-81
2023/05/11 02:33:22;;;;;;;17.90;13.35;;;11.70;94.50;;;;;;5014972;28;20038;-80
2023/05/11 02:35:50;;;;;;;18.70;12.88;;;11.80;94.50;;;;;;5014742;28;20034;-82
2023/05/11 02:38:17;;;;;;;25.65;13.98;;;11.70;94.50;;;;;;4997436;28;20128;-82
2023/05/11 02:40:49;;;;;;;23.85;15.23;;;11.70;94.50;;;;;;4998466;28;20087;-83
2023/05/11 02:43:20;;;;;;;22.42;14.30;;;11.80;94.50;;;;;;5014637;28;20398;-81
2023/05/11 02:45:49;;;;;;;21.73;14.63;;;11.80;94.50;;;;;;5014272;28;20053;-82
2023/05/11 02:48:25;;;;;;;21.00;14.40;;;11.80;94.60;;;;;;5015025;28;20401;-83
2023/05/11 02:50:53;;;;;;;22.35;14.82;;;11.80;94.60;;;;;;4998120;28;20042;-82
2023/05/11 02:53:24;;;;;;;21.88;14.68;;;11.70;94.70;;;;;;5014726;28;20133;-82
2023/05/11 02:55:50;;;;;;;24.23;14.05;;;11.70;94.60;;;;;;5014045;28;20076;-82
2023/05/11 02:58:17;;;;;;;22.67;15.23;;;11.70;94.50;;;;;;4997720;28;20037;-82
2023/05/11 03:00:43;;;;;;;27.70;15.25;;;11.70;94.60;;;;;;4981462;28;20034;-81
2023/05/11 03:03:09;;;;;;;21.92;14.20;;;11.70;94.70;;;;;;4997629;28;20045;-80
2023/05/11 03:05:35;;;;;;;23.17;14.60;;;11.70;94.70;;;;;;5014293;28;20042;-81
2023/05/11 03:08:01;;;;;;;26.45;14.48;;;11.70;94.60;;;;;;5014492;28;20121;-81
2023/05/11 03:10:28;;;;;;;19.20;12.65;;;11.70;94.60;;;;;;4997961;28;20038;-83
2023/05/11 03:12:55;;;;;;;31.33;14.07;;;11.70;94.50;;;;;;5014305;28;20372;-82
2023/05/11 03:15:21;;;;;;;22.42;14.35;;;11.70;94.60;;;;;;4997745;28;20041;-81
2023/05/11 03:17:49;;;;;;;21.98;12.45;;;11.60;94.60;;;;;;5014316;28;20115;-80
2023/05/11 03:20:16;;;;;;;16.58;11.45;;;11.60;94.60;;;;;;5014778;28;20041;-83
2023/05/11 03:22:42;;;;;;;20.33;12.32;;;11.60;94.60;;;;;;5013870;28;20108;-83
2023/05/11 03:25:10;;;;;;;31.00;13.48;;;11.60;94.50;;;;;;4997304;28;20111;-81
2023/05/11 03:27:37;;;;;;;23.55;12.32;;;11.50;94.60;;;;;;4997328;28;20376;-82
2023/05/11 03:30:07;;;;;;;21.73;12.32;;;11.60;94.70;;;;;;4981673;28;20044;-81
2023/05/11 03:32:34;;;;;;;53.13;13.70;;;11.60;94.70;;;;;;5014067;28;20048;-82
2023/05/11 03:35:00;;;;;;;44.88;11.77;;;11.50;94.70;;;;;;4980871;28;20088;-82
2023/05/11 03:37:26;;;;;;;77.18;13.68;;;11.50;94.60;;;;;;4997050;28;20042;-82
2023/05/11 03:39:56;;;;;;;83.88;13.10;;;11.50;94.60;;;;;;4996973;28;20114;-82
2023/05/11 03:42:24;;;;;;;64.32;12.52;;;11.50;94.60;;;;;;5013475;28;20128;-83
2023/05/11 03:44:54;;;;;;;44.95;12.57;;;11.50;94.70;;;;;;5013262;28;20034;-81
2023/05/11 03:47:21;;;;;;;81.32;13.70;;;11.50;94.80;;;;;;4997886;28;20061;-81
2023/05/11 03:49:49;;;;;;;94.10;14.30;;;11.50;94.80;;;;;;4997094;28;20041;-83
2023/05/11 03:52:16;;;;;;;41.88;12.05;;;11.50;94.80;;;;;;5013204;28;20413;-84
2023/05/11 03:54:42;;;;;;;32.75;11.25;;;11.40;94.80;;;;;;4996505;28;20042;-81
2023/05/11 03:57:09;;;;;;;62.50;13.30;;;11.40;94.90;;;;;;5013054;28;20422;-80
2023/05/11 03:59:35;;;;;;;46.72;12.65;;;11.50;94.90;;;;;;4996604;28;20069;-82
2023/05/11 04:02:02;;;;;;;63.60;13.15;;;11.40;94.80;;;;;;5012416;28;20049;-82
2023/05/11 04:04:29;;;;;;;54.88;11.68;;;11.40;94.90;;;;;;5012879;28;20038;-81
2023/05/11 04:06:55;;;;;;;76.53;12.63;;;11.40;94.90;;;;;;4996428;28;20498;-82
2023/05/11 04:09:21;;;;;;;81.55;12.15;;;11.40;95.00;;;;;;5012379;28;20042;-82
2023/05/11 04:11:47;;;;;;;30.90;10.10;;;11.30;95.10;;;;;;4979568;28;20065;-82
2023/05/11 04:14:12;;;;;;;78.97;11.10;;;11.30;95.10;;;;;;4979603;28;20054;-82
2023/05/11 04:16:38;;;;;;;71.13;9.68;;;11.30;95.10;;;;;;4995964;28;20038;-82
2023/05/11 04:19:05;;;;;;;27.40;7.35;;;11.30;95.10;;;;;;4995734;28;20502;-84
2023/05/11 04:21:31;;;;;;;40.80;9.13;;;11.20;95.00;;;;;;4996268;28;20042;-82
2023/05/11 04:23:57;;;;;;;21.92;8.48;;;11.30;95.00;;;;;;4996400;28;20482;-83
2023/05/11 04:26:23;;;;;;;32.88;8.25;;;11.30;95.10;;;;;;5012817;28;20037;-80
2023/05/11 04:28:49;;;;;;;79.10;9.38;;;11.30;95.00;;;;;;4980231;28;20449;-82
2023/05/11 04:31:15;;;;;;;23.52;6.65;;;11.20;95.00;;;;;;5012749;28;20478;-82
2023/05/11 04:33:40;;;;;;;14.35;5.78;;;11.20;94.90;;;;;;4980540;28;21372;-83
2023/05/11 04:36:06;;;;;;;8.95;5.95;;;11.20;94.80;;;;;;4995996;28;20137;-78
2023/05/11 04:38:32;;;;;;;21.20;6.03;;;11.10;94.80;;;;;;5012314;28;20081;-82
2023/05/11 04:41:02;;;;;;;36.50;7.68;;;11.10;94.80;;;;;;4996021;28;20125;-82
2023/05/11 04:43:28;;;;;;;22.90;5.78;;;11.10;94.80;;;;;;5012261;28;20157;-82
2023/05/11 04:45:53;;;;;;;36.78;7.20;;;11.10;94.70;;;;;;5012924;28;20057;-81
2023/05/11 04:48:19;;;;;;;22.08;6.57;;;11.00;94.80;;;;;;5012947;28;20132;-78
2023/05/11 04:50:45;;;;;;;38.80;8.05;;;11.00;94.80;;;;;;4980431;28;20041;-78
2023/05/11 04:53:11;;;;;;;14.73;6.13;;;11.00;94.80;;;;;;5012560;28;20081;-79
2023/05/11 04:55:36;;;;;;;25.77;6.30;;;11.00;94.80;;;;;;4996075;28;20038;-80
2023/05/11 04:58:02;;;;;;;9.05;6.03;;;11.00;94.80;;;;;;4995972;28;20042;-78
2023/05/11 05:00:28;;;;;;;7.75;5.00;;;11.00;94.70;;;;;;5012371;28;20383;-78
2023/05/11 05:02:53;;;;;;;6.30;4.43;;;11.00;94.80;;;;;;5015576;28;20073;-78
2023/05/11 05:05:19;;;;;;;8.02;4.93;;;11.00;94.70;;;;;;5015475;28;20127;-79
2023/05/11 05:07:46;;;;;;;6.40;4.40;;;11.00;94.70;;;;;;4988136;28;20046;-80
2023/05/11 05:10:12;;;;;;;6.43;4.80;;;11.00;94.60;;;;;;4979900;28;20092;-79
2023/05/11 05:12:38;;;;;;;4.70;3.55;;;11.00;94.60;;;;;;4982971;28;20038;-79
2023/05/11 05:15:04;;;;;;;5.15;3.60;;;11.00;94.60;;;;;;5005812;28;20390;-78
2023/05/11 05:17:30;;;;;;;4.65;3.47;;;11.00;94.60;;;;;;4989831;28;20042;-77
2023/05/11 05:19:56;;;;;;;4.13;3.30;;;11.10;94.60;;;;;;4971864;28;20049;-80
2023/05/11 05:22:23;;;;;;;4.38;3.13;;;11.10;94.50;;;;;;4988985;28;20117;-79
2023/05/11 05:24:49;;;;;;;5.55;4.00;;;11.20;94.40;;;;;;5015093;28;20041;-79
2023/05/11 05:27:15;;;;;;;6.05;4.50;;;11.10;94.30;;;;;;4999408;28;20037;-78
2023/05/11 05:29:40;;;;;;;7.50;4.68;;;11.20;94.20;;;;;;4983638;28;20034;-79
2023/05/11 05:32:06;;;;;;;7.72;4.80;;;11.20;94.20;;;;;;4983020;28;20552;-77
2023/05/11 05:34:32;;;;;;;6.88;4.85;;;11.20;94.10;;;;;;5015579;28;20072;-80
2023/05/11 05:36:58;;;;;;;5.63;3.92;;;11.20;94.10;;;;;;5015554;28;20127;-79
2023/05/11 05:39:23;;;;;;;5.70;4.00;;;11.20;94.00;;;;;;4998980;28;20046;-81
2023/05/11 05:41:49;;;;;;;6.65;4.88;;;11.20;93.90;;;;;;4999046;28;20093;-79
2023/05/11 05:44:15;;;;;;;7.60;5.15;;;11.30;93.90;;;;;;4983046;28;20038;-78
2023/05/11 05:46:41;;;;;;;10.05;6.63;;;11.30;93.90;;;;;;5015793;28;20033;-78
2023/05/11 05:49:07;;;;;;;7.95;5.07;;;11.30;93.80;;;;;;4999340;28;20073;-80
2023/05/11 05:51:32;;;;;;;8.38;5.28;;;11.30;93.80;;;;;;4982817;28;20042;-79
2023/05/11 05:53:58;;;;;;;7.70;4.82;;;11.30;93.80;;;;;;5000119;28;20041;-80
2023/05/11 05:56:25;;;;;;;7.25;4.90;;;11.40;93.90;;;;;;5004075;28;20042;-80
2023/05/11 05:58:50;;;;;;;7.50;4.63;;;11.40;93.80;;;;;;5012199;28;20045;-79
2023/05/11 06:01:16;;;;;;;7.10;5.63;;;11.40;93.80;;;;;;5039597;28;20054;-79
2023/05/11 06:03:43;;;;;;;7.18;5.10;;;11.40;93.80;;;;;;5024704;28;20030;-77
2023/05/11 06:06:09;;;;;;;9.23;5.63;;;11.50;93.80;;;;;;5041189;28;20022;-79
2023/05/11 06:08:35;;;;;;;9.93;5.65;;;11.40;93.80;;;;;;5040973;28;20042;-79
2023/05/11 06:11:00;;;;;;;8.43;5.72;;;11.50;93.80;;;;;;5023527;28;20026;-80
2023/05/11 06:13:26;;;;;;;6.68;4.60;;;11.50;93.80;;;;;;5019364;28;20041;-80
2023/05/11 06:15:52;;;;;;;6.25;4.90;;;11.50;93.70;;;;;;5017415;28;20049;-79
2023/05/11 06:18:17;;;;;;;8.02;5.38;;;11.50;93.70;;;;;;5016516;28;20135;-79
2023/05/11 06:20:43;;;;;;;5.72;4.15;;;11.50;93.70;;;;;;5032606;28;20050;-78
2023/05/11 06:23:09;;;;;;;7.28;4.80;;;11.50;93.50;;;;;;5016123;28;20044;-79
2023/05/11 06:25:34;;;;;;;5.22;3.75;;;11.50;93.50;;;;;;5021696;28;20041;-79
2023/05/11 06:28:01;;;;;;;4.53;3.17;;;11.50;93.50;;;;;;5000290;28;20042;-79
2023/05/11 06:30:27;;;;;;;4.00;3.00;;;11.60;93.40;;;;;;5015523;28;20042;-79
2023/05/11 06:32:52;;;;;;;5.25;3.50;;;11.60;93.40;;;;;;5000312;28;20084;-79
2023/05/11 06:35:18;;;;;;;5.32;4.22;;;11.70;93.30;;;;;;5015686;28;20041;-79
2023/05/11 06:37:44;;;;;;;5.22;4.30;;;11.80;93.30;;;;;;4999318;28;20045;-80
2023/05/11 06:40:09;;;;;;;6.07;4.25;;;11.80;93.20;;;;;;4998339;28;20537;-79
2023/05/11 06:42:35;;;;;;;4.63;3.50;;;11.80;93.20;;;;;;5014485;28;20046;-78
2023/05/11 06:45:01;;;;;;;5.72;4.05;;;11.80;93.20;;;;;;4998342;28;20383;-80
2023/05/11 06:47:26;;;;;;;6.63;5.20;;;11.80;93.10;;;;;;4998201;28;20038;-80
2023/05/11 06:49:52;;;;;;;7.05;4.97;;;11.80;93.10;;;;;;4999110;28;20042;-79
2023/05/11 06:52:18;;;;;;;6.28;4.47;;;11.80;93.20;;;;;;5014482;28;20049;-79
2023/05/11 06:54:44;;;;;;;4.43;3.70;;;11.80;93.20;;;;;;4998060;28;20486;-80
2023/05/11 06:57:10;;;;;;;4.68;3.17;;;11.90;93.20;;;;;;4998161;28;20053;-79
2023/05/11 06:59:35;;;;;;;3.70;3.00;;;12.00;93.30;;;;;;5014592;28;20034;-80
2023/05/11 07:02:01;;;;;;;3.65;3.03;;;12.00;93.20;;;;;;4981150;28;20459;-78
2023/05/11 07:04:28;;;;;;;3.88;3.05;;;12.00;93.10;;;;;;4998779;28;20050;-79
2023/05/11 07:06:54;;;;;;;3.88;3.50;;;12.10;93.10;;;;;;4998427;28;20041;-81
2023/05/11 07:09:20;;;;;;;3.95;2.75;;;12.10;93.10;;;;;;4998874;28;20037;-82
2023/05/11 07:11:46;;;;;;;4.18;3.65;;;12.10;93.00;;;;;;4982285;28;20047;-78
2023/05/11 07:14:11;;;;;;;4.03;3.03;;;12.10;93.10;;;;;;4997872;28;20077;-83
2023/05/11 07:16:37;;;;;;;4.03;3.10;;;12.10;93.10;;;;;;4981543;28;20042;-81
2023/05/11 07:19:08;;;;;;;3.80;3.05;;;12.10;93.10;;;;;;4981045;28;20049;-80
2023/05/11 07:21:37;;;;;;;3.90;3.03;;;12.20;93.10;;;;;;5013519;28;20069;-82
2023/05/11 07:24:03;;;;;;;3.70;2.90;;;12.20;93.00;;;;;;4980213;28;20064;-79
2023/05/11 07:26:29;;;;;;;3.00;2.40;;;12.30;93.00;;;;;;4980935;28;20041;-83
2023/05/11 07:28:55;;;;;;;2.53;1.92;;;12.30;93.00;;;;;;5013715;28;20053;-82
2023/05/11 07:31:21;;;;;;;2.85;2.40;;;12.30;93.00;;;;;;4997840;28;20056;-83
2023/05/11 07:33:47;;;;;;;2.92;2.35;;;12.40;93.00;;;;;;4981475;28;20048;-83
2023/05/11 07:36:13;;;;;;;3.00;2.05;;;12.40;93.00;;;;;;4997824;28;20042;-82
2023/05/11 07:38:39;;;;;;;2.50;2.28;;;12.50;93.00;;;;;;4997720;28;20565;-80
2023/05/11 07:41:04;;;;;;;2.50;2.30;;;12.50;93.00;;;;;;4997611;28;20133;-82
2023/05/11 07:43:30;;;;;;;2.70;2.40;;;12.50;93.00;;;;;;4997426;28;20084;-84
2023/05/11 07:45:56;;;;;;;3.00;2.45;;;12.50;93.00;;;;;;4981822;28;20073;-81
2023/05/11 07:48:22;;;;;;;3.08;2.70;;;12.60;93.00;;;;;;4981431;28;20038;-80
2023/05/11 07:50:48;;;;;;;4.68;2.88;;;12.60;92.90;;;;;;5014124;28;20041;-82
2023/05/11 07:53:15;;;;;;;3.08;2.53;;;12.60;93.00;;;;;;4997871;28;20049;-79
2023/05/11 07:55:40;;;;;;;3.55;2.50;;;12.60;92.90;;;;;;4997374;28;20096;-81
2023/05/11 07:58:06;;;;;;;3.33;2.80;;;12.70;92.90;;;;;;4981150;28;20046;-82
2023/05/11 08:00:32;;;;;;;3.75;2.70;;;12.70;92.90;;;;;;4997425;28;20457;-81
2023/05/11 08:02:58;;;;;;;3.72;2.20;;;12.80;92.90;;;;;;4980319;28;20038;-84
2023/05/11 08:05:24;;;;;;;2.65;2.45;;;12.70;92.90;;;;;;4997155;28;20734;-81
2023/05/11 08:07:50;;;;;;;3.22;2.72;;;12.80;92.80;;;;;;5013445;28;20042;-81
2023/05/11 08:10:16;;;;;;;3.28;2.75;;;12.80;92.80;;;;;;4981179;28;20044;-81
2023/05/11 08:12:42;;;;;;;3.35;2.45;;;12.90;92.80;;;;;;4996979;28;20124;-82
2023/05/11 08:15:08;;;;;;;3.58;2.85;;;12.90;92.60;;;;;;4996538;28;20065;-81
2023/05/11 08:17:35;;;;;;;4.32;3.33;;;12.90;92.70;;;;;;4996369;28;20046;-82
2023/05/11 08:20:01;;;;;;;3.95;3.00;;;12.90;92.70;;;;;;4996568;28;20050;-80
2023/05/11 08:22:27;;;;;;;4.18;3.15;;;13.00;92.80;;;;;;4996741;28;20042;-81
2023/05/11 08:24:53;;;;;;;3.53;3.00;;;13.00;92.80;;;;;;4998371;28;20578;-82
2023/05/11 08:27:18;;;;;;;4.53;3.83;;;13.00;92.80;;;;;;5016688;28;20080;-82
2023/05/11 08:29:44;;;;;;;5.63;4.22;;;13.00;92.90;;;;;;5016971;28;20171;-79
2023/05/11 08:32:10;;;;;;;5.47;4.35;;;13.10;92.70;;;;;;5016454;28;20038;-83
2023/05/11 08:34:35;;;;;;;5.65;4.90;;;13.10;92.70;;;;;;5033004;28;20442;-80
2023/05/11 08:37:01;;;;;;;7.38;4.95;;;13.10;92.60;;;;;;5035575;28;20131;-83
2023/05/11 08:39:27;;;;;;;6.75;4.53;;;13.20;92.80;;;;;;5020450;28;20489;-82
2023/05/11 08:41:58;;;;;;;5.32;4.50;;;13.20;92.80;;;;;;5003545;28;20042;-84
2023/05/11 08:44:26;;;;;;;6.97;5.28;;;13.20;92.70;;;;;;5020214;28;20056;-82
2023/05/11 08:46:53;;;;;;;6.63;4.70;;;13.20;92.70;;;;;;5036432;28;20044;-81
2023/05/11 08:49:19;;;;;;;6.13;5.22;;;13.30;92.70;;;;;;5020408;28;20048;-82
2023/05/11 08:51:46;;;;;;;6.40;5.05;;;13.30;92.80;;;;;;5020588;28;20130;-80
2023/05/11 08:54:12;;;;;;;7.28;5.05;;;13.30;92.60;;;;;;5036824;28;20455;-83
2023/05/11 08:56:40;;;;;;;7.13;5.47;;;13.30;92.70;;;;;;5020116;28;20041;-80
2023/05/11 08:59:07;;;;;;;5.68;4.90;;;13.30;92.80;;;;;;5020855;28;20037;-81
2023/05/11 09:01:35;;;;;;;5.35;4.32;;;13.30;92.70;;;;;;5036254;28;20075;-81
2023/05/11 09:04:03;;;;;;;6.45;4.78;;;13.20;92.70;;;;;;5019933;28;20080;-82
2023/05/11 09:06:29;;;;;;;6.22;5.18;;;13.20;92.70;;;;;;5036655;28;20045;-82
2023/05/11 09:08:56;;;;;;;7.07;5.15;;;13.20;92.70;;;;;;5036238;28;20041;-82
2023/05/11 09:11:23;;;;;;;8.35;5.78;;;13.00;92.60;;;;;;5036180;28;20045;-81
2023/05/11 09:13:50;;;;;;;7.95;5.78;;;13.10;92.80;;;;;;5036519;28;20060;-80
2023/05/11 09:16:15;;;;;;;8.85;6.13;;;13.10;92.80;;;;;;5020037;28;20461;-81
2023/05/11 09:18:49;;;;;;;9.95;6.97;;;13.10;92.90;;;;;;5019748;28;20054;-81
2023/05/11 09:21:14;;;;;;;9.15;6.00;;;13.20;92.90;;;;;;5019607;28;20056;-81
2023/05/11 09:23:40;;;;;;;10.05;6.88;;;13.10;92.80;;;;;;5019903;28;20389;-82
2023/05/11 09:26:13;;;;;;;14.25;7.88;;;13.20;93.00;;;;;;5019454;28;20478;-81
2023/05/11 09:28:51;;;;;;;12.35;7.70;;;13.20;93.00;;;;;;5019839;28;20073;-81
2023/05/11 09:31:42;;;;;;;12.40;8.13;;;13.20;93.10;;;;;;5019944;28;20397;-80
2023/05/11 09:34:21;;;;;;;12.50;7.30;;;13.30;93.10;;;;;;5018911;28;20041;-79
2023/05/11 09:36:51;;;;;;;14.90;9.13;;;13.30;93.10;;;;;;5018937;28;20383;-83
2023/05/11 09:39:26;;;;;;;14.85;9.70;;;13.40;93.00;;;;;;5035128;28;20041;-82
2023/05/11 09:42:13;;;;;;;18.23;9.77;;;13.50;93.00;;;;;;5035231;28;20077;-83
2023/05/11 09:44:40;;;;;;;16.42;9.52;;;13.50;93.00;;;;;;5035173;28;20421;-81
2023/05/11 09:47:18;;;;;;;11.95;8.02;;;13.50;93.00;;;;;;5018218;28;20033;-82
2023/05/11 09:49:45;;;;;;;14.05;9.27;;;13.50;92.90;;;;;;5018619;28;20072;-82
2023/05/11 09:52:16;;;;;;;15.93;9.35;;;13.60;92.90;;;;;;5018900;28;20120;-82
2023/05/11 09:54:51;;;;;;;13.80;8.40;;;13.60;92.90;;;;;;5035196;28;20049;-82
2023/05/11 09:57:37;;;;;;;10.00;6.50;;;13.70;92.90;;;;;;5018766;28;20851;-83
2023/05/11 10:00:13;;;;;;;10.60;6.45;;;13.70;92.90;;;;;;5018628;28;20494;-81
2023/05/11 10:02:38;;;;;;;7.80;5.55;;;13.60;92.80;;;;;;5035084;28;20042;-80
2023/05/11 10:05:11;;;;;;;10.20;7.88;;;13.70;92.70;;;;;;5035282;28;20072;-82
2023/05/11 10:07:37;;;;;;;9.00;6.63;;;13.80;92.70;;;;;;5019466;28;20069;-81
2023/05/11 10:10:08;;;;;;;8.80;6.30;;;13.90;92.70;;;;;;5002701;28;20398;-81
2023/05/11 10:12:37;;;;;;;7.85;6.78;;;14.00;92.60;;;;;;5035118;28;20084;-80
2023/05/11 10:15:08;;;;;;;8.32;6.07;;;14.00;92.60;;;;;;5035046;28;20049;-81
2023/05/11 10:17:35;;;;;;;7.15;5.57;;;14.00;92.30;;;;;;5035553;28;20053;-81
2023/05/11 10:20:03;;;;;;;6.65;5.68;;;14.00;92.40;;;;;;5018040;28;20053;-83
2023/05/11 10:22:29;;;;;;;7.35;6.25;;;14.10;92.40;;;;;;5035940;28;20050;-82
2023/05/11 10:24:56;;;;;;;7.05;5.60;;;14.10;92.20;;;;;;5036266;28;20124;-81
2023/05/11 10:27:23;;;;;;;5.78;5.18;;;14.20;92.20;;;;;;5018331;28;20078;-84
2023/05/11 10:29:49;;;;;;;8.25;5.60;;;14.30;92.10;;;;;;5034915;28;20091;-81
2023/05/11 10:32:17;;;;;;;6.47;5.40;;;14.30;92.00;;;;;;5035131;28;20080;-81
2023/05/11 10:34:45;;;;;;;6.60;5.93;;;14.40;91.90;;;;;;5034795;28;20038;-83
2023/05/11 10:37:12;;;;;;;8.13;6.45;;;14.50;92.00;;;;;;5034557;28;20047;-82
2023/05/11 10:39:39;;;;;;;8.35;7.00;;;14.50;91.90;;;;;;5018467;28;20100;-80
2023/05/11 10:42:10;;;;;;;6.88;6.13;;;14.60;92.00;;;;;;5035169;28;20045;-83
2023/05/11 10:45:01;;;;;;;7.65;6.50;;;14.60;92.10;;;;;;5034667;28;20047;-82
2023/05/11 10:47:59;;;;;;;6.68;6.05;;;14.70;92.00;;;;;;5018195;28;20081;-81
2023/05/11 10:50:49;;;;;;;7.28;5.78;;;14.80;91.80;;;;;;5006447;28;20087;-83
2023/05/11 10:53:38;;;;;;;7.43;5.50;;;14.80;91.90;;;;;;5016962;28;20049;-82
2023/05/11 10:56:21;;;;;;;6.10;5.40;;;14.80;91.80;;;;;;5016967;28;20041;-81
2023/05/11 10:59:12;;;;;;;6.40;5.68;;;14.90;91.60;;;;;;5032869;28;20049;-81
2023/05/11 11:01:40;;;;;;;8.38;5.88;;;14.90;91.50;;;;;;5016618;28;20076;-81
2023/05/11 11:04:11;;;;;;;6.28;5.68;;;15.00;91.00;;;;;;5016871;28;20041;-80
2023/05/11 11:06:39;;;;;;;7.25;6.55;;;15.00;90.40;;;;;;5017614;28;20038;-83
2023/05/11 11:09:07;;;;;;;6.40;5.70;;;15.10;90.50;;;;;;5034123;28;20483;-82
2023/05/11 11:11:39;;;;;;;6.70;6.00;;;15.20;90.50;;;;;;5033783;28;20053;-82
2023/05/11 11:14:08;;;;;;;8.32;6.57;;;15.30;90.40;;;;;;5017317;28;20084;-82
2023/05/11 11:16:37;;;;;;;7.80;6.70;;;15.30;90.20;;;;;;5033989;28;20175;-83
2023/05/11 11:19:28;;;;;;;7.22;6.53;;;15.40;90.10;;;;;;5017291;28;20061;-81
2023/05/11 11:21:58;;;;;;;8.13;6.20;;;15.60;90.10;;;;;;5034175;28;20402;-82
2023/05/11 11:24:37;;;;;;;7.20;6.35;;;15.70;90.00;;;;;;5033507;28;20128;-81
2023/05/11 11:27:03;;;;;;;8.80;6.30;;;15.60;89.90;;;;;;5033752;28;20370;-82
2023/05/11 11:29:30;;;;;;;6.10;5.50;;;15.70;90.00;;;;;;5033783;28;20048;-79
2023/05/11 11:32:24;;;;;;;5.45;4.95;;;15.70;89.80;;;;;;5033682;28;20093;-80
2023/05/11 11:34:50;;;;;;;7.18;5.68;;;15.70;89.60;;;;;;5017291;28;20041;-80
2023/05/11 11:37:17;;;;;;;7.18;6.40;;;15.70;89.40;;;;;;5016828;28;20041;-80
2023/05/11 11:39:43;;;;;;;6.43;5.40;;;15.70;88.80;;;;;;5016612;28;20045;-80
2023/05/11 11:42:32;;;;;;;6.47;5.88;;;15.80;88.80;;;;;;5032819;28;20520;-81
2023/05/11 11:45:29;;;;;;;6.55;5.88;;;15.90;88.90;;;;;;5016613;28;20416;-81
2023/05/11 11:48:10;;;;;;;5.70;5.10;;;16.00;88.30;;;;;;5016557;28;20041;-82
2023/05/11 11:50:36;;;;;;;7.63;6.07;;;16.10;88.40;;;;;;5016260;28;20482;-82
2023/05/11 11:53:02;;;;;;;6.20;5.60;;;16.40;88.60;;;;;;5032606;28;20037;-82
2023/05/11 11:55:46;;;;;;;6.97;5.10;;;16.50;88.30;;;;;;5016677;28;20083;-81
2023/05/11 11:58:12;;;;;;;5.20;4.70;;;16.60;87.80;;;;;;5016264;28;20041;-81
2023/05/11 12:00:39;;;;;;;6.85;5.47;;;16.80;86.10;;;;;;5016118;28;20048;-81
2023/05/11 12:03:05;;;;;;;7.63;5.57;;;17.00;86.90;;;;;;5015986;28;20041;-81
2023/05/11 12:05:33;;;;;;;7.80;5.78;;;17.40;86.10;;;;;;5016070;28;20034;-81
2023/05/11 12:08:05;;;;;;;6.40;5.80;;;17.50;85.10;;;;;;5015990;28;20049;-82
2023/05/11 12:10:31;;;;;;;6.18;5.57;;;17.70;85.20;;;;;;5016026;28;20048;-81
2023/05/11 12:12:58;;;;;;;5.50;4.90;;;17.70;84.80;;;;;;5032491;28;20045;-81
2023/05/11 12:15:33;;;;;;;5.95;5.35;;;17.80;84.20;;;;;;5032581;28;20042;-81
2023/05/11 12:18:01;;;;;;;6.97;5.40;;;17.70;83.80;;;;;;5015859;28;20030;-82
2023/05/11 12:20:27;;;;;;;7.35;6.40;;;17.50;84.20;;;;;;5032409;28;20083;-80
2023/05/11 12:22:53;;;;;;;8.30;4.72;;;17.50;83.80;;;;;;5031335;28;20042;-81
2023/05/11 12:25:20;;;;;;;6.07;5.13;;;17.50;83.70;;;;;;4996553;28;20034;-81
2023/05/11 12:27:53;;;;;;;5.47;4.40;;;17.50;83.60;;;;;;4996218;28;20128;-83
2023/05/11 12:30:20;;;;;;;6.60;5.07;;;17.60;83.80;;;;;;4996034;28;20068;-82
2023/05/11 12:32:46;;;;;;;5.97;4.60;;;17.70;83.30;;;;;;4996058;28;20053;-81
2023/05/11 12:35:12;;;;;;;7.10;4.68;;;17.90;82.90;;;;;;5012542;28;20038;-80
2023/05/11 12:37:44;;;;;;;4.85;4.40;;;18.00;82.40;;;;;;5012715;28;20398;-81
2023/05/11 12:40:10;;;;;;;5.10;4.20;;;18.10;81.50;;;;;;4996311;28;20128;-82
2023/05/11 12:42:36;;;;;;;5.43;4.35;;;18.20;81.50;;;;;;5011644;28;20073;-81
2023/05/11 12:45:03;;;;;;;6.38;5.53;;;18.30;81.50;;;;;;4996371;28;20074;-82